Glenn, Michigan
Current Conditions -  °F | °C
As of 6:15 AM on Wednesday 26 Nov 2014 (Local Time) from KLWA Reporting Station
Overcast Overcast  
Wind Chill: 27°   Ceiling: 2500
Heat Index: 27°   Visibility: 10mi
Dew Point: 21°   Wind: 3mph
Humidity: 79%   Direction: 160°SSE
Pressure: 30.16"   Gusts: NA
Location:  42.52°N, 86.23°W
Report Text: KLWA 261115Z AUTO 16003KT 10SM OVC025 M03/M06 A3016 RMK AO2 T10281060
Loading
Personal Weather Stations






























Interactive Weather Map New forecast layout! Learn more

10-Day Weather Forecast

Advertisements
Track Severe Weather on mobile